createdAt,value
2023-04-18T00:01:26.219Z,21.40
2023-04-18T00:03:54.321Z,14.37
2023-04-18T00:06:22.666Z,16.65
2023-04-18T00:08:51.015Z,16.70
2023-04-18T00:11:19.079Z,21.15
2023-04-18T00:13:48.819Z,26.90
2023-04-18T00:16:16.930Z,18.87
2023-04-18T00:18:44.984Z,14.80
2023-04-18T00:21:13.473Z,16.07
2023-04-18T00:23:42.105Z,30.38
2023-04-18T00:26:10.212Z,21.58
2023-04-18T00:28:38.844Z,16.73
2023-04-18T00:31:08.526Z,16.75
2023-04-18T00:33:36.566Z,19.13
2023-04-18T00:36:05.160Z,23.92
2023-04-18T00:38:33.116Z,25.75
2023-04-18T00:41:01.148Z,13.70
2023-04-18T00:43:29.220Z,15.67
2023-04-18T00:46:01.344Z,28.33
2023-04-18T00:48:31.371Z,19.33
2023-04-18T00:51:00.321Z,28.40
2023-04-18T00:53:29.078Z,17.57
2023-04-18T00:55:57.257Z,24.30
2023-04-18T00:58:25.811Z,20.97
2023-04-18T01:00:54.370Z,19.53
2023-04-18T01:03:24.178Z,20.47
2023-04-18T01:05:54.796Z,21.60
2023-04-18T01:08:23.336Z,16.47
2023-04-18T01:10:51.657Z,20.80
2023-04-18T01:13:21.448Z,18.17
2023-04-18T01:15:50.585Z,22.15
2023-04-18T01:18:19.024Z,13.10
2023-04-18T01:20:48.709Z,20.67
2023-04-18T01:23:19.098Z,20.70
2023-04-18T01:25:50.395Z,17.63
2023-04-18T01:28:21.224Z,10.90
2023-04-18T01:30:49.969Z,13.30
2023-04-18T01:33:17.996Z,19.33
2023-04-18T01:35:48.271Z,12.65
2023-04-18T01:38:16.248Z,10.57
2023-04-18T01:40:44.289Z,13.67
2023-04-18T01:43:13.764Z,17.27
2023-04-18T01:45:42.002Z,11.47
2023-04-18T01:48:10.194Z,9.03
2023-04-18T01:50:38.297Z,13.77
2023-04-18T01:53:06.244Z,11.33
2023-04-18T01:55:34.183Z,13.17
2023-04-18T01:58:02.228Z,15.20
2023-04-18T02:00:31.643Z,10.77
2023-04-18T02:03:00.265Z,15.33
2023-04-18T02:05:28.332Z,13.60
2023-04-18T02:07:56.298Z,8.40
2023-04-18T02:10:24.570Z,13.43
2023-04-18T02:12:52.528Z,6.30
2023-04-18T02:15:20.996Z,8.07
2023-04-18T02:17:50.529Z,5.27
2023-04-18T02:20:18.617Z,7.20
2023-04-18T02:22:48.120Z,8.43
2023-04-18T02:25:16.148Z,8.20
2023-04-18T02:27:44.187Z,5.47
2023-04-18T02:30:12.595Z,4.93
2023-04-18T02:32:40.695Z,4.73
2023-04-18T02:35:11.456Z,6.20
2023-04-18T02:37:39.620Z,6.97
2023-04-18T02:40:09.083Z,8.60
2023-04-18T02:42:37.109Z,9.00
2023-04-18T02:45:05.900Z,10.27
2023-04-18T02:47:47.065Z,9.20
2023-04-18T02:50:21.979Z,9.03
2023-04-18T02:52:50.288Z,14.77
2023-04-18T02:55:21.926Z,5.67
2023-04-18T02:57:50.003Z,7.43
2023-04-18T03:00:41.309Z,9.47
2023-04-18T03:03:50.359Z,8.23
2023-04-18T03:06:29.484Z,11.70
2023-04-18T03:08:58.241Z,10.43
2023-04-18T03:11:27.063Z,8.30
2023-04-18T03:13:56.293Z,6.57
2023-04-18T03:16:26.925Z,8.00
2023-04-18T03:18:54.956Z,9.30
2023-04-18T03:21:25.601Z,9.10
2023-04-18T03:23:55.391Z,8.13
2023-04-18T03:26:25.114Z,10.07
2023-04-18T03:28:54.111Z,8.23
2023-04-18T03:31:22.292Z,9.63
2023-04-18T03:33:51.696Z,15.57
2023-04-18T03:36:25.187Z,7.87
2023-04-18T03:38:56.266Z,7.43
2023-04-18T03:41:25.811Z,13.13
2023-04-18T03:43:53.767Z,17.63
2023-04-18T03:46:22.978Z,18.27
2023-04-18T03:48:52.946Z,12.73
2023-04-18T03:51:21.027Z,13.50
2023-04-18T03:53:49.034Z,10.97
2023-04-18T03:56:19.812Z,13.83
2023-04-18T03:58:56.346Z,11.30
2023-04-18T04:01:25.814Z,14.23
2023-04-18T04:03:54.802Z,13.17
2023-04-18T04:06:23.781Z,14.47
2023-04-18T04:08:51.776Z,19.90
2023-04-18T04:11:25.519Z,11.18
2023-04-18T04:13:54.067Z,11.63
2023-04-18T04:16:28.300Z,17.87
2023-04-18T04:18:57.330Z,13.37
2023-04-18T04:21:31.760Z,23.50
2023-04-18T04:24:01.365Z,14.83
2023-04-18T04:26:39.170Z,22.10
2023-04-18T04:29:16.360Z,15.03
2023-04-18T04:31:46.148Z,15.00
2023-04-18T04:34:18.143Z,18.67
2023-04-18T04:36:46.704Z,16.60
2023-04-18T04:39:15.478Z,16.17
2023-04-18T04:42:07.047Z,16.07
2023-04-18T04:44:44.127Z,15.43
2023-04-18T04:47:12.243Z,16.17
2023-04-18T04:49:41.038Z,13.70
2023-04-18T04:52:09.050Z,17.00
2023-04-18T04:54:37.284Z,16.00
2023-04-18T04:57:09.236Z,21.30
2023-04-18T04:59:37.232Z,16.83
2023-04-18T05:02:06.776Z,15.00
2023-04-18T05:04:36.663Z,14.17
2023-04-18T05:07:05.106Z,16.13
2023-04-18T05:09:33.242Z,11.40
2023-04-18T05:12:01.916Z,22.33
2023-04-18T05:14:31.781Z,15.00
2023-04-18T05:16:59.942Z,13.70
2023-04-18T05:19:28.507Z,14.27
2023-04-18T05:21:57.233Z,16.20
2023-04-18T05:24:25.289Z,22.53
2023-04-18T05:26:53.650Z,23.10
2023-04-18T05:29:22.085Z,16.17
2023-04-18T05:31:51.392Z,20.63
2023-04-18T05:34:19.349Z,25.03
2023-04-18T05:36:47.785Z,18.67
2023-04-18T05:39:15.802Z,19.00
2023-04-18T05:41:43.848Z,26.80
2023-04-18T05:44:11.848Z,19.83
2023-04-18T05:46:40.184Z,25.73
2023-04-18T05:49:09.658Z,26.03
2023-04-18T05:51:37.660Z,31.40
2023-04-18T05:54:05.764Z,67.93
2023-04-18T05:56:34.046Z,26.63
2023-04-18T05:59:02.038Z,38.33
2023-04-18T06:01:30.027Z,28.90
2023-04-18T06:03:59.762Z,39.30
2023-04-18T06:06:29.263Z,29.93
2023-04-18T06:08:57.339Z,41.17
2023-04-18T06:11:25.589Z,30.17
2023-04-18T06:13:55.823Z,31.57
2023-04-18T06:16:24.019Z,37.90
2023-04-18T06:18:52.064Z,43.20
2023-04-18T06:21:21.224Z,89.17
2023-04-18T06:23:50.578Z,50.87
2023-04-18T06:26:18.624Z,61.93
2023-04-18T06:28:46.618Z,41.47
2023-04-18T06:31:14.721Z,42.87
2023-04-18T06:33:42.732Z,67.43
2023-04-18T06:36:10.931Z,56.70
2023-04-18T06:38:39.012Z,42.37
2023-04-18T06:41:08.360Z,53.43
2023-04-18T06:43:36.783Z,75.90
2023-04-18T06:46:06.231Z,50.57
2023-04-18T06:48:34.319Z,45.30
2023-04-18T06:51:02.289Z,57.73
2023-04-18T06:53:30.531Z,50.73
2023-04-18T06:55:59.570Z,61.03
2023-04-18T06:58:30.192Z,111.77
2023-04-18T07:00:58.182Z,63.53
2023-04-18T07:03:26.997Z,83.50
2023-04-18T07:05:55.621Z,58.60
2023-04-18T07:08:23.636Z,49.87
2023-04-18T07:10:52.416Z,89.30
2023-04-18T07:13:20.388Z,53.07
2023-04-18T07:15:49.800Z,60.93
2023-04-18T07:18:30.160Z,58.17
2023-04-18T07:21:02.765Z,109.93
2023-04-18T07:23:30.819Z,102.53
2023-04-18T07:26:01.544Z,84.67
2023-04-18T07:28:29.563Z,50.93
2023-04-18T07:31:01.287Z,64.80
2023-04-18T07:33:31.772Z,63.17
2023-04-18T07:35:59.983Z,60.03
2023-04-18T07:38:28.567Z,61.70
2023-04-18T07:40:58.495Z,70.07
2023-04-18T07:43:26.908Z,56.50
2023-04-18T07:45:55.309Z,105.73
2023-04-18T07:48:26.344Z,101.00
2023-04-18T07:50:54.789Z,74.23
2023-04-18T07:53:22.867Z,90.93
2023-04-18T07:55:52.101Z,57.80
2023-04-18T07:58:20.435Z,60.40
2023-04-18T08:00:48.440Z,58.83
2023-04-18T08:03:16.564Z,88.90
2023-04-18T08:05:46.057Z,49.50
2023-04-18T08:08:14.308Z,50.53
2023-04-18T08:10:42.363Z,46.03
2023-04-18T08:13:13.010Z,45.80
2023-04-18T08:15:41.259Z,44.50
2023-04-18T08:18:09.244Z,54.80
2023-04-18T08:20:37.470Z,36.30
2023-04-18T08:23:10.397Z,35.43
2023-04-18T08:25:40.382Z,38.03
2023-04-18T08:28:08.392Z,38.37
2023-04-18T08:30:36.412Z,34.83
2023-04-18T08:33:04.613Z,42.23
2023-04-18T08:35:32.691Z,29.67
2023-04-18T08:38:02.521Z,33.50
2023-04-18T08:40:32.103Z,42.20
2023-04-18T08:43:04.887Z,38.63
2023-04-18T08:45:33.373Z,33.67
2023-04-18T08:48:03.703Z,38.27
2023-04-18T08:50:32.332Z,38.87
2023-04-18T08:53:01.876Z,31.17
2023-04-18T08:55:33.895Z,33.90
2023-04-18T08:58:02.723Z,42.83
2023-04-18T09:00:30.745Z,31.00
2023-04-18T09:03:00.118Z,39.93
2023-04-18T09:05:28.439Z,33.00
2023-04-18T09:07:57.442Z,35.60
2023-04-18T09:10:32.722Z,69.17
2023-04-18T09:13:04.811Z,32.53
2023-04-18T09:15:32.931Z,33.33
2023-04-18T09:18:03.328Z,38.70
2023-04-18T09:20:38.329Z,38.07
2023-04-18T09:23:10.704Z,38.47
2023-04-18T09:25:46.794Z,34.77
2023-04-18T09:28:33.957Z,41.57
2023-04-18T09:31:11.819Z,33.10
2023-04-18T09:33:43.057Z,37.90
2023-04-18T09:36:18.903Z,38.23
2023-04-18T09:38:47.180Z,35.33
2023-04-18T09:41:19.858Z,37.63
2023-04-18T09:43:48.992Z,40.53
2023-04-18T09:46:17.685Z,41.30
2023-04-18T09:48:46.222Z,41.53
2023-04-18T09:51:16.976Z,39.13
2023-04-18T09:53:47.483Z,36.23
2023-04-18T09:56:25.576Z,34.47
2023-04-18T09:58:57.835Z,35.47
2023-04-18T10:01:28.997Z,32.43
2023-04-18T10:03:58.789Z,45.90
2023-04-18T10:06:28.605Z,32.77
2023-04-18T10:08:57.515Z,40.57
2023-04-18T10:11:27.169Z,37.27
2023-04-18T10:13:57.993Z,37.60
2023-04-18T10:16:27.121Z,34.67
2023-04-18T10:18:55.183Z,30.27
2023-04-18T10:21:23.389Z,35.30
2023-04-18T10:23:51.339Z,46.07
2023-04-18T10:26:19.364Z,35.70
2023-04-18T10:28:54.770Z,36.70
2023-04-18T10:31:24.122Z,35.80
2023-04-18T10:36:28.293Z,35.73
2023-04-18T10:39:02.884Z,45.33
2023-04-18T10:41:32.323Z,64.77
2023-04-18T10:44:22.573Z,35.07
2023-04-18T10:47:20.968Z,41.80
2023-04-18T10:50:01.230Z,43.50
2023-04-18T10:52:30.412Z,35.00
2023-04-18T10:55:27.152Z,46.70
2023-04-18T10:57:57.388Z,42.43
2023-04-18T11:00:27.148Z,36.97
2023-04-18T11:02:57.804Z,43.17
2023-04-18T11:05:27.610Z,40.83
2023-04-18T11:07:56.084Z,43.10
2023-04-18T11:10:26.537Z,37.23
2023-04-18T11:12:55.610Z,36.07
2023-04-18T11:15:28.614Z,44.80
2023-04-18T11:17:59.949Z,46.93
2023-04-18T11:20:28.707Z,40.13
2023-04-18T11:22:58.276Z,50.33
2023-04-18T11:25:28.433Z,41.80
2023-04-18T11:27:59.054Z,44.43
2023-04-18T11:30:29.244Z,40.80
2023-04-18T11:32:57.324Z,38.83
2023-04-18T11:35:25.461Z,41.87
2023-04-18T11:37:56.144Z,34.73
2023-04-18T11:40:24.420Z,38.00
2023-04-18T11:42:55.315Z,47.47
2023-04-18T11:45:23.325Z,35.00
2023-04-18T11:47:58.144Z,32.70
2023-04-18T11:50:27.007Z,51.83
2023-04-18T11:52:55.863Z,32.33
2023-04-18T11:55:27.194Z,48.20
2023-04-18T11:57:57.357Z,41.53
2023-04-18T12:00:33.799Z,39.13
2023-04-18T12:03:05.353Z,36.80
2023-04-18T12:05:36.416Z,32.33
2023-04-18T12:08:09.461Z,52.37
2023-04-18T12:10:37.803Z,38.90
2023-04-18T12:13:08.744Z,38.33
2023-04-18T12:15:40.295Z,36.23
2023-04-18T12:18:09.999Z,40.07
2023-04-18T12:20:46.383Z,42.07
2023-04-18T12:23:30.756Z,44.50
2023-04-18T12:26:03.377Z,39.67
2023-04-18T12:28:32.057Z,34.77
2023-04-18T12:31:00.417Z,37.77
2023-04-18T12:33:29.848Z,35.37
2023-04-18T12:35:57.856Z,34.60
2023-04-18T12:38:25.962Z,41.07
2023-04-18T12:40:53.950Z,58.47
2023-04-18T12:43:21.953Z,40.07
2023-04-18T12:45:50.767Z,45.10
2023-04-18T12:48:18.801Z,39.73
2023-04-18T12:50:49.139Z,38.93
2023-04-18T12:53:17.173Z,61.03
2023-04-18T12:55:45.180Z,48.00
2023-04-18T12:58:18.375Z,48.60
2023-04-18T13:00:46.399Z,51.53
2023-04-18T13:03:14.606Z,43.00
2023-04-18T13:05:42.723Z,46.80
2023-04-18T13:08:17.079Z,48.80
2023-04-18T13:10:47.346Z,39.27
2023-04-18T13:13:15.645Z,39.17
2023-04-18T13:15:43.743Z,43.53
2023-04-18T13:18:11.833Z,50.97
2023-04-18T13:20:39.784Z,42.57
2023-04-18T13:23:07.822Z,47.23
2023-04-18T13:25:37.251Z,41.93
2023-04-18T13:28:05.484Z,38.30
2023-04-18T13:30:35.701Z,39.60
2023-04-18T13:33:03.953Z,38.17
2023-04-18T13:35:32.021Z,36.97
2023-04-18T13:38:00.314Z,40.20
2023-04-18T13:40:28.289Z,45.80
2023-04-18T13:42:57.640Z,41.00
2023-04-18T13:45:25.594Z,52.03
2023-04-18T13:47:53.805Z,42.80
2023-04-18T13:50:23.039Z,47.50
2023-04-18T13:52:51.884Z,32.67
2023-04-18T13:55:19.928Z,46.90
2023-04-18T13:57:47.913Z,54.40
2023-04-18T14:00:19.308Z,49.87
2023-04-18T14:02:47.479Z,44.60
2023-04-18T14:05:15.820Z,49.47
2023-04-18T14:07:43.803Z,43.37
2023-04-18T14:10:12.372Z,45.43
2023-04-18T14:12:41.010Z,47.57
2023-04-18T14:15:11.026Z,74.00
2023-04-18T14:17:41.472Z,52.10
2023-04-18T14:20:10.898Z,59.50
2023-04-18T14:22:38.861Z,57.17
2023-04-18T14:25:08.496Z,61.23
2023-04-18T14:27:37.408Z,52.77
2023-04-18T14:30:06.554Z,56.70
2023-04-18T14:32:35.244Z,54.07
2023-04-18T14:35:07.078Z,53.37
2023-04-18T14:37:35.443Z,52.57
2023-04-18T14:40:05.422Z,44.47
2023-04-18T14:42:33.414Z,54.27
2023-04-18T14:45:01.331Z,50.97
2023-04-18T14:47:31.833Z,52.37
2023-04-18T14:49:59.860Z,63.67
2023-04-18T14:52:29.230Z,87.70
2023-04-18T14:54:57.274Z,64.63
2023-04-18T14:57:31.347Z,59.80
2023-04-18T14:59:59.298Z,48.93
2023-04-18T15:02:27.396Z,51.00
2023-04-18T15:04:55.794Z,57.27
2023-04-18T15:07:23.905Z,51.23
2023-04-18T15:09:53.372Z,61.23
2023-04-18T15:12:21.352Z,62.40
2023-04-18T15:14:49.353Z,56.10
2023-04-18T15:17:17.357Z,58.00
2023-04-18T15:19:45.621Z,66.23
2023-04-18T15:22:14.141Z,48.53
2023-04-18T15:24:42.328Z,50.13
2023-04-18T15:27:12.457Z,61.80
2023-04-18T15:29:42.187Z,55.87
2023-04-18T15:32:10.444Z,47.27
2023-04-18T15:34:38.553Z,49.43
2023-04-18T15:37:06.551Z,43.90
2023-04-18T15:39:34.658Z,55.67
2023-04-18T15:42:02.845Z,47.93
2023-04-18T15:44:32.296Z,61.53
2023-04-18T15:47:01.197Z,44.27
2023-04-18T15:49:29.209Z,50.23
2023-04-18T15:51:57.341Z,46.60
2023-04-18T15:54:25.378Z,47.80
2023-04-18T15:56:53.438Z,55.27
2023-04-18T15:59:21.425Z,71.00
2023-04-18T16:01:51.161Z,55.17
2023-04-18T16:04:19.341Z,55.43
2023-04-18T16:06:49.045Z,40.07
2023-04-18T16:09:17.015Z,55.63
2023-04-18T16:11:45.947Z,70.97
2023-04-18T16:14:14.242Z,72.80
2023-04-18T16:16:42.539Z,44.37
2023-04-18T16:19:11.849Z,63.67
2023-04-18T16:21:39.857Z,60.70
2023-04-18T16:24:08.381Z,59.33
2023-04-18T16:26:36.357Z,47.37
2023-04-18T16:29:04.618Z,49.03
2023-04-18T16:31:32.682Z,45.03
2023-04-18T16:34:01.028Z,51.57
2023-04-18T16:36:30.875Z,51.67
2023-04-18T16:38:59.054Z,47.93
2023-04-18T16:41:27.125Z,49.90
2023-04-18T16:43:55.276Z,39.80
2023-04-18T16:46:23.627Z,46.80
2023-04-18T16:48:52.689Z,40.43
2023-04-18T16:51:21.027Z,42.90
2023-04-18T16:53:50.372Z,42.00
2023-04-18T16:56:18.397Z,36.57
2023-04-18T16:58:46.411Z,37.57
2023-04-18T17:01:14.614Z,41.40
2023-04-18T17:03:42.765Z,44.10
2023-04-18T17:06:10.855Z,45.20
2023-04-18T17:08:38.872Z,47.17
2023-04-18T17:11:10.669Z,43.90
2023-04-18T17:13:39.340Z,44.00
2023-04-18T17:16:08.393Z,41.03
2023-04-18T17:18:36.416Z,34.63
2023-04-18T17:21:04.713Z,35.70
2023-04-18T17:23:33.199Z,46.90
2023-04-18T17:26:01.334Z,36.67
2023-04-18T17:28:30.762Z,37.67
2023-04-18T17:30:58.856Z,29.03
2023-04-18T17:33:26.793Z,35.70
2023-04-18T17:35:55.022Z,31.80
2023-04-18T17:38:23.133Z,37.40
2023-04-18T17:40:59.456Z,37.60
2023-04-18T17:43:27.587Z,51.50
2023-04-18T17:45:57.850Z,70.83
2023-04-18T17:48:27.418Z,80.63
2023-04-18T17:50:55.569Z,43.90
2023-04-18T17:53:23.644Z,44.43
2023-04-18T17:55:52.269Z,38.47
2023-04-18T17:58:20.981Z,40.07
2023-04-18T18:00:49.281Z,44.17
2023-04-18T18:03:19.742Z,43.70
2023-04-18T18:05:48.753Z,43.13
2023-04-18T18:08:17.255Z,37.43
2023-04-18T18:10:46.956Z,43.47
2023-04-18T18:13:15.897Z,40.40
2023-04-18T18:15:43.864Z,32.00
2023-04-18T18:18:12.005Z,59.07
2023-04-18T18:20:43.707Z,42.73
2023-04-18T18:23:11.921Z,41.23
2023-04-18T18:25:40.240Z,45.57
2023-04-18T18:28:08.430Z,44.73
2023-04-18T18:30:37.979Z,44.10
2023-04-18T18:33:06.116Z,45.70
2023-04-18T18:35:34.953Z,62.00
2023-04-18T18:38:04.518Z,46.77
2023-04-18T18:40:32.640Z,38.47
2023-04-18T18:43:00.705Z,55.60
2023-04-18T18:45:29.208Z,49.67
2023-04-18T18:47:57.313Z,55.90
2023-04-18T18:50:25.518Z,43.17
2023-04-18T18:52:53.800Z,45.60
2023-04-18T18:55:23.171Z,45.53
2023-04-18T18:57:51.592Z,45.27
2023-04-18T19:00:19.546Z,49.20
2023-04-18T19:02:47.682Z,40.77
2023-04-18T19:05:17.344Z,51.13
2023-04-18T19:07:45.410Z,44.20
2023-04-18T19:10:13.409Z,44.10
2023-04-18T19:12:42.836Z,36.70
2023-04-18T19:15:12.048Z,47.60
2023-04-18T19:17:40.324Z,63.33
2023-04-18T19:20:09.645Z,51.60
2023-04-18T19:22:38.213Z,55.70
2023-04-18T19:25:07.051Z,44.43
2023-04-18T19:27:35.161Z,40.90
2023-04-18T19:30:04.932Z,38.33
2023-04-18T19:32:33.581Z,47.60
2023-04-18T19:35:01.777Z,52.10
2023-04-18T19:37:29.818Z,40.07
2023-04-18T19:39:57.781Z,44.53
2023-04-18T19:42:25.873Z,40.47
2023-04-18T19:44:53.917Z,51.63
2023-04-18T19:47:24.280Z,35.93
2023-04-18T19:49:52.360Z,35.33
2023-04-18T19:52:20.478Z,29.53
2023-04-18T19:54:48.519Z,28.60
2023-04-18T19:57:16.524Z,30.97
2023-04-18T19:59:44.487Z,30.30
2023-04-18T20:02:12.643Z,42.40
2023-04-18T20:04:43.935Z,31.73
2023-04-18T20:07:12.260Z,30.33
2023-04-18T20:09:40.556Z,30.53
2023-04-18T20:12:08.666Z,30.00
2023-04-18T20:14:39.339Z,23.07
2023-04-18T20:17:07.403Z,34.97
2023-04-18T20:19:35.710Z,24.23
2023-04-18T20:22:05.158Z,28.23
2023-04-18T20:24:34.552Z,41.60
2023-04-18T20:27:02.955Z,23.83
2023-04-18T20:29:31.414Z,32.33
2023-04-18T20:31:59.430Z,27.57
2023-04-18T20:34:27.406Z,40.70
2023-04-18T20:36:55.575Z,32.90
2023-04-18T20:39:25.296Z,37.63
2023-04-18T20:41:54.319Z,40.03
2023-04-18T20:44:22.522Z,35.87
2023-04-18T20:46:50.693Z,34.13
2023-04-18T20:49:18.884Z,40.33
2023-04-18T20:51:47.029Z,35.77
2023-04-18T20:54:15.420Z,35.70
2023-04-18T20:56:44.957Z,36.80
2023-04-18T20:59:13.078Z,39.43
2023-04-18T21:01:41.227Z,34.70
2023-04-18T21:04:09.616Z,34.13
2023-04-18T21:06:37.813Z,36.90
2023-04-18T21:09:06.559Z,29.80
2023-04-18T21:11:34.758Z,31.93
2023-04-18T21:14:06.603Z,35.40
2023-04-18T21:16:35.432Z,30.90
2023-04-18T21:19:03.579Z,31.40
2023-04-18T21:21:31.608Z,34.00
2023-04-18T21:23:59.605Z,31.60
2023-04-18T21:26:27.910Z,36.33
2023-04-18T21:28:57.521Z,29.47
2023-04-18T21:31:28.243Z,32.23
2023-04-18T21:33:56.993Z,26.30
2023-04-18T21:36:26.920Z,28.57
2023-04-18T21:38:56.040Z,32.70
2023-04-18T21:41:25.103Z,36.60
2023-04-18T21:43:53.803Z,24.77
2023-04-18T21:46:23.284Z,28.13
2023-04-18T21:48:52.729Z,28.10
2023-04-18T21:51:20.798Z,31.90
2023-04-18T21:53:48.784Z,30.83
2023-04-18T21:56:17.837Z,37.53
2023-04-18T21:58:46.032Z,26.90
2023-04-18T22:01:14.120Z,31.33
2023-04-18T22:03:42.417Z,21.27
2023-04-18T22:06:11.967Z,27.70
2023-04-18T22:08:42.032Z,29.70
2023-04-18T22:11:11.551Z,34.40
2023-04-18T22:13:39.530Z,32.60
2023-04-18T22:16:08.451Z,35.73
2023-04-18T22:18:37.961Z,38.50
2023-04-18T22:21:06.754Z,34.20
2023-04-18T22:23:36.389Z,35.27
2023-04-18T22:26:04.670Z,42.33
2023-04-18T22:28:33.987Z,41.23
2023-04-18T22:31:02.114Z,34.07
2023-04-18T22:33:30.349Z,38.90
2023-04-18T22:35:58.342Z,35.33
2023-04-18T22:38:26.514Z,30.27
2023-04-18T22:40:55.955Z,40.93
2023-04-18T22:43:24.920Z,78.83
2023-04-18T22:45:52.980Z,32.80
2023-04-18T22:48:21.922Z,39.30
2023-04-18T22:50:50.632Z,31.67
2023-04-18T22:53:18.700Z,28.53
2023-04-18T22:55:46.957Z,35.10
2023-04-18T22:58:16.324Z,31.00
2023-04-18T23:00:44.386Z,64.10
2023-04-18T23:03:12.554Z,28.83
2023-04-18T23:05:42.796Z,28.90
2023-04-18T23:08:11.878Z,24.90
2023-04-18T23:10:40.080Z,27.83
2023-04-18T23:13:08.141Z,32.77
2023-04-18T23:15:38.885Z,33.40
2023-04-18T23:18:07.103Z,28.07
2023-04-18T23:20:36.347Z,25.57
2023-04-18T23:23:04.411Z,53.47
2023-04-18T23:25:33.649Z,31.20
2023-04-18T23:28:01.726Z,30.60
2023-04-18T23:30:29.799Z,61.77
2023-04-18T23:32:59.145Z,33.03
2023-04-18T23:35:27.240Z,31.50
2023-04-18T23:37:57.378Z,34.20
2023-04-18T23:40:26.471Z,28.27
2023-04-18T23:42:55.449Z,34.23
2023-04-18T23:45:24.327Z,38.70
2023-04-18T23:47:54.088Z,31.10
2023-04-18T23:50:23.682Z,32.20
2023-04-18T23:52:51.748Z,24.20
2023-04-18T23:55:19.775Z,28.50
2023-04-18T23:57:47.735Z,28.83
